sensor_id;sensor_type;location;lat;lon;timestamp;P1;durP1;ratioP1;P2;durP2;ratioP2
4837;SDS011;2433;48.768;9.154;2024-03-22T00:00:04;8.70;;;5.37;;
4837;SDS011;2433;48.768;9.154;2024-03-22T00:02:38;8.00;;;6.10;;
4837;SDS011;2433;48.768;9.154;2024-03-22T00:05:03;7.97;;;5.70;;
4837;SDS011;2433;48.768;9.154;2024-03-22T00:07:29;8.20;;;4.83;;
4837;SDS011;2433;48.768;9.154;2024-03-22T00:09:55;6.50;;;5.33;;
4837;SDS011;2433;48.768;9.154;2024-03-22T00:12:20;9.93;;;5.10;;
4837;SDS011;2433;48.768;9.154;2024-03-22T00:14:46;6.20;;;4.23;;
4837;SDS011;2433;48.768;9.154;2024-03-22T00:17:11;5.77;;;4.90;;
4837;SDS011;2433;48.768;9.154;2024-03-22T00:19:37;7.90;;;5.03;;
4837;SDS011;2433;48.768;9.154;2024-03-22T00:22:03;6.50;;;5.73;;
4837;SDS011;2433;48.768;9.154;2024-03-22T00:24:28;7.40;;;5.27;;
4837;SDS011;2433;48.768;9.154;2024-03-22T00:26:54;7.40;;;4.37;;
4837;SDS011;2433;48.768;9.154;2024-03-22T00:29:19;6.90;;;4.80;;
4837;SDS011;2433;48.768;9.154;2024-03-22T00:31:45;7.10;;;4.50;;
4837;SDS011;2433;48.768;9.154;2024-03-22T00:34:10;5.50;;;3.87;;
4837;SDS011;2433;48.768;9.154;2024-03-22T00:36:36;5.70;;;3.93;;
4837;SDS011;2433;48.768;9.154;2024-03-22T00:39:02;9.40;;;5.17;;
4837;SDS011;2433;48.768;9.154;2024-03-22T00:41:28;6.97;;;5.00;;
4837;SDS011;2433;48.768;9.154;2024-03-22T00:43:54;7.00;;;3.67;;
4837;SDS011;2433;48.768;9.154;2024-03-22T00:46:19;6.73;;;4.80;;
4837;SDS011;2433;48.768;9.154;2024-03-22T00:48:45;6.00;;;4.00;;
4837;SDS011;2433;48.768;9.154;2024-03-22T00:51:11;4.17;;;3.03;;
4837;SDS011;2433;48.768;9.154;2024-03-22T00:53:36;8.60;;;4.63;;
4837;SDS011;2433;48.768;9.154;2024-03-22T00:56:02;7.63;;;4.60;;
4837;SDS011;2433;48.768;9.154;2024-03-22T00:58:28;6.17;;;3.87;;
4837;SDS011;2433;48.768;9.154;2024-03-22T01:00:54;5.80;;;4.23;;
4837;SDS011;2433;48.768;9.154;2024-03-22T01:03:20;4.03;;;3.63;;
4837;SDS011;2433;48.768;9.154;2024-03-22T01:05:46;9.83;;;4.27;;
4837;SDS011;2433;48.768;9.154;2024-03-22T01:08:11;6.70;;;4.80;;
4837;SDS011;2433;48.768;9.154;2024-03-22T01:10:37;6.10;;;4.00;;
4837;SDS011;2433;48.768;9.154;2024-03-22T01:13:02;5.10;;;4.10;;
4837;SDS011;2433;48.768;9.154;2024-03-22T01:15:28;5.57;;;3.87;;
4837;SDS011;2433;48.768;9.154;2024-03-22T01:17:54;7.83;;;4.47;;
4837;SDS011;2433;48.768;9.154;2024-03-22T01:20:20;7.57;;;5.83;;
4837;SDS011;2433;48.768;9.154;2024-03-22T01:22:46;6.60;;;5.30;;
4837;SDS011;2433;48.768;9.154;2024-03-22T01:25:12;7.20;;;4.47;;
4837;SDS011;2433;48.768;9.154;2024-03-22T01:27:37;6.10;;;4.17;;
4837;SDS011;2433;48.768;9.154;2024-03-22T01:30:03;6.37;;;4.50;;
4837;SDS011;2433;48.768;9.154;2024-03-22T01:32:29;7.10;;;5.07;;
4837;SDS011;2433;48.768;9.154;2024-03-22T01:34:55;6.33;;;5.10;;
4837;SDS011;2433;48.768;9.154;2024-03-22T01:37:20;5.90;;;4.43;;
4837;SDS011;2433;48.768;9.154;2024-03-22T01:39:46;8.50;;;4.93;;
4837;SDS011;2433;48.768;9.154;2024-03-22T01:42:11;8.47;;;5.00;;
4837;SDS011;2433;48.768;9.154;2024-03-22T01:44:37;6.37;;;4.83;;
4837;SDS011;2433;48.768;9.154;2024-03-22T01:47:03;7.53;;;4.87;;
4837;SDS011;2433;48.768;9.154;2024-03-22T01:49:28;8.00;;;5.07;;
4837;SDS011;2433;48.768;9.154;2024-03-22T01:51:55;6.70;;;5.10;;
4837;SDS011;2433;48.768;9.154;2024-03-22T01:54:20;7.03;;;5.10;;
4837;SDS011;2433;48.768;9.154;2024-03-22T01:56:46;8.43;;;5.37;;
4837;SDS011;2433;48.768;9.154;2024-03-22T01:59:12;7.27;;;5.40;;
4837;SDS011;2433;48.768;9.154;2024-03-22T02:01:38;7.50;;;5.43;;
4837;SDS011;2433;48.768;9.154;2024-03-22T02:04:04;6.30;;;5.67;;
4837;SDS011;2433;48.768;9.154;2024-03-22T02:06:29;6.77;;;5.20;;
4837;SDS011;2433;48.768;9.154;2024-03-22T02:08:55;7.93;;;5.60;;
4837;SDS011;2433;48.768;9.154;2024-03-22T02:11:21;6.70;;;5.03;;
4837;SDS011;2433;48.768;9.154;2024-03-22T02:13:47;7.83;;;4.97;;
4837;SDS011;2433;48.768;9.154;2024-03-22T02:16:13;6.30;;;4.20;;
4837;SDS011;2433;48.768;9.154;2024-03-22T02:18:39;12.03;;;5.53;;
4837;SDS011;2433;48.768;9.154;2024-03-22T02:21:04;6.43;;;4.90;;
4837;SDS011;2433;48.768;9.154;2024-03-22T02:23:33;7.93;;;5.67;;
4837;SDS011;2433;48.768;9.154;2024-03-22T02:26:03;8.23;;;5.37;;
4837;SDS011;2433;48.768;9.154;2024-03-22T02:28:30;9.20;;;6.10;;
4837;SDS011;2433;48.768;9.154;2024-03-22T02:30:58;10.10;;;5.83;;
4837;SDS011;2433;48.768;9.154;2024-03-22T02:33:23;7.70;;;6.30;;
4837;SDS011;2433;48.768;9.154;2024-03-22T02:35:49;8.17;;;5.17;;
4837;SDS011;2433;48.768;9.154;2024-03-22T02:38:16;8.60;;;6.70;;
4837;SDS011;2433;48.768;9.154;2024-03-22T02:40:45;9.27;;;6.13;;
4837;SDS011;2433;48.768;9.154;2024-03-22T02:43:11;9.03;;;6.50;;
4837;SDS011;2433;48.768;9.154;2024-03-22T02:45:37;7.37;;;5.67;;
4837;SDS011;2433;48.768;9.154;2024-03-22T02:48:03;11.13;;;6.53;;
4837;SDS011;2433;48.768;9.154;2024-03-22T02:50:33;10.70;;;6.80;;
4837;SDS011;2433;48.768;9.154;2024-03-22T02:52:59;10.67;;;5.87;;
4837;SDS011;2433;48.768;9.154;2024-03-22T02:55:25;18.83;;;7.90;;
4837;SDS011;2433;48.768;9.154;2024-03-22T02:57:50;8.83;;;6.53;;
4837;SDS011;2433;48.768;9.154;2024-03-22T03:00:16;10.37;;;6.93;;
4837;SDS011;2433;48.768;9.154;2024-03-22T03:02:43;8.87;;;6.20;;
4837;SDS011;2433;48.768;9.154;2024-03-22T03:05:09;8.93;;;6.57;;
4837;SDS011;2433;48.768;9.154;2024-03-22T03:07:35;8.50;;;5.70;;
4837;SDS011;2433;48.768;9.154;2024-03-22T03:10:01;9.20;;;5.90;;
4837;SDS011;2433;48.768;9.154;2024-03-22T03:12:26;11.67;;;6.57;;
4837;SDS011;2433;48.768;9.154;2024-03-22T03:14:52;7.83;;;6.53;;
4837;SDS011;2433;48.768;9.154;2024-03-22T03:17:17;9.00;;;5.80;;
4837;SDS011;2433;48.768;9.154;2024-03-22T03:19:43;8.20;;;6.40;;
4837;SDS011;2433;48.768;9.154;2024-03-22T03:22:09;7.80;;;5.77;;
4837;SDS011;2433;48.768;9.154;2024-03-22T03:24:35;8.73;;;6.17;;
4837;SDS011;2433;48.768;9.154;2024-03-22T03:27:00;8.50;;;6.60;;
4837;SDS011;2433;48.768;9.154;2024-03-22T03:29:26;9.80;;;5.80;;
4837;SDS011;2433;48.768;9.154;2024-03-22T03:31:51;8.80;;;5.70;;
4837;SDS011;2433;48.768;9.154;2024-03-22T03:34:17;7.77;;;6.17;;
4837;SDS011;2433;48.768;9.154;2024-03-22T03:36:45;12.43;;;4.97;;
4837;SDS011;2433;48.768;9.154;2024-03-22T03:39:10;8.63;;;4.97;;
4837;SDS011;2433;48.768;9.154;2024-03-22T03:41:36;9.23;;;6.17;;
4837;SDS011;2433;48.768;9.154;2024-03-22T03:44:01;7.70;;;5.10;;
4837;SDS011;2433;48.768;9.154;2024-03-22T03:46:27;5.37;;;4.57;;
4837;SDS011;2433;48.768;9.154;2024-03-22T03:48:52;7.00;;;4.90;;
4837;SDS011;2433;48.768;9.154;2024-03-22T03:51:18;8.27;;;5.33;;
4837;SDS011;2433;48.768;9.154;2024-03-22T03:53:43;7.60;;;4.67;;
4837;SDS011;2433;48.768;9.154;2024-03-22T03:56:09;9.90;;;5.00;;
4837;SDS011;2433;48.768;9.154;2024-03-22T03:58:34;7.20;;;4.50;;
4837;SDS011;2433;48.768;9.154;2024-03-22T04:01:04;8.00;;;4.60;;
4837;SDS011;2433;48.768;9.154;2024-03-22T04:03:32;5.93;;;4.70;;
4837;SDS011;2433;48.768;9.154;2024-03-22T04:05:58;5.17;;;4.33;;
4837;SDS011;2433;48.768;9.154;2024-03-22T04:08:24;5.47;;;4.43;;
4837;SDS011;2433;48.768;9.154;2024-03-22T04:10:52;9.10;;;5.13;;
4837;SDS011;2433;48.768;9.154;2024-03-22T04:13:18;12.03;;;4.87;;
4837;SDS011;2433;48.768;9.154;2024-03-22T04:15:43;6.93;;;4.53;;
4837;SDS011;2433;48.768;9.154;2024-03-22T04:18:09;7.47;;;4.93;;
4837;SDS011;2433;48.768;9.154;2024-03-22T04:20:34;5.03;;;3.87;;
4837;SDS011;2433;48.768;9.154;2024-03-22T04:23:00;11.63;;;5.53;;
4837;SDS011;2433;48.768;9.154;2024-03-22T04:25:25;6.87;;;4.90;;
4837;SDS011;2433;48.768;9.154;2024-03-22T04:27:51;6.00;;;3.90;;
4837;SDS011;2433;48.768;9.154;2024-03-22T04:30:17;10.23;;;4.83;;
4837;SDS011;2433;48.768;9.154;2024-03-22T04:32:42;5.50;;;4.47;;
4837;SDS011;2433;48.768;9.154;2024-03-22T04:35:11;5.70;;;4.37;;
4837;SDS011;2433;48.768;9.154;2024-03-22T04:37:37;6.43;;;5.30;;
4837;SDS011;2433;48.768;9.154;2024-03-22T04:40:02;10.70;;;7.23;;
4837;SDS011;2433;48.768;9.154;2024-03-22T04:42:28;10.13;;;5.60;;
4837;SDS011;2433;48.768;9.154;2024-03-22T04:44:54;8.20;;;5.60;;
4837;SDS011;2433;48.768;9.154;2024-03-22T04:47:19;8.50;;;6.27;;
4837;SDS011;2433;48.768;9.154;2024-03-22T04:49:45;7.23;;;5.37;;
4837;SDS011;2433;48.768;9.154;2024-03-22T04:52:11;8.33;;;5.10;;
4837;SDS011;2433;48.768;9.154;2024-03-22T04:54:36;10.37;;;6.73;;
4837;SDS011;2433;48.768;9.154;2024-03-22T04:57:02;10.50;;;5.27;;
4837;SDS011;2433;48.768;9.154;2024-03-22T04:59:28;7.77;;;5.30;;
4837;SDS011;2433;48.768;9.154;2024-03-22T05:01:53;6.30;;;5.07;;
4837;SDS011;2433;48.768;9.154;2024-03-22T05:04:19;8.43;;;4.60;;
4837;SDS011;2433;48.768;9.154;2024-03-22T05:06:44;6.93;;;5.40;;
4837;SDS011;2433;48.768;9.154;2024-03-22T05:09:10;8.20;;;6.33;;
4837;SDS011;2433;48.768;9.154;2024-03-22T05:11:36;7.60;;;5.17;;
4837;SDS011;2433;48.768;9.154;2024-03-22T05:14:02;12.70;;;5.70;;
4837;SDS011;2433;48.768;9.154;2024-03-22T05:16:28;6.97;;;5.00;;
4837;SDS011;2433;48.768;9.154;2024-03-22T05:18:53;6.73;;;4.80;;
4837;SDS011;2433;48.768;9.154;2024-03-22T05:21:19;10.37;;;5.97;;
4837;SDS011;2433;48.768;9.154;2024-03-22T05:23:44;6.00;;;5.00;;
4837;SDS011;2433;48.768;9.154;2024-03-22T05:26:10;6.23;;;4.33;;
4837;SDS011;2433;48.768;9.154;2024-03-22T05:28:35;6.03;;;4.83;;
4837;SDS011;2433;48.768;9.154;2024-03-22T05:31:01;7.40;;;4.87;;
4837;SDS011;2433;48.768;9.154;2024-03-22T05:33:27;4.67;;;4.17;;
4837;SDS011;2433;48.768;9.154;2024-03-22T05:35:53;6.33;;;4.10;;
4837;SDS011;2433;48.768;9.154;2024-03-22T05:38:19;8.70;;;4.73;;
4837;SDS011;2433;48.768;9.154;2024-03-22T05:40:44;6.43;;;3.93;;
4837;SDS011;2433;48.768;9.154;2024-03-22T05:43:13;6.77;;;4.63;;
4837;SDS011;2433;48.768;9.154;2024-03-22T05:45:39;5.50;;;4.93;;
4837;SDS011;2433;48.768;9.154;2024-03-22T05:48:04;7.53;;;5.30;;
4837;SDS011;2433;48.768;9.154;2024-03-22T05:50:30;7.17;;;5.07;;
4837;SDS011;2433;48.768;9.154;2024-03-22T05:52:55;5.70;;;4.70;;
4837;SDS011;2433;48.768;9.154;2024-03-22T05:55:21;5.97;;;4.80;;
4837;SDS011;2433;48.768;9.154;2024-03-22T05:57:47;8.87;;;4.80;;
4837;SDS011;2433;48.768;9.154;2024-03-22T06:00:12;6.47;;;4.47;;
4837;SDS011;2433;48.768;9.154;2024-03-22T06:02:39;7.17;;;5.07;;
4837;SDS011;2433;48.768;9.154;2024-03-22T06:05:04;6.70;;;4.97;;
4837;SDS011;2433;48.768;9.154;2024-03-22T06:07:30;7.50;;;4.40;;
4837;SDS011;2433;48.768;9.154;2024-03-22T06:10:04;7.00;;;4.27;;
4837;SDS011;2433;48.768;9.154;2024-03-22T06:12:30;7.33;;;4.03;;
4837;SDS011;2433;48.768;9.154;2024-03-22T06:14:56;9.53;;;5.50;;
4837;SDS011;2433;48.768;9.154;2024-03-22T06:17:22;5.10;;;4.60;;
4837;SDS011;2433;48.768;9.154;2024-03-22T06:19:48;7.70;;;5.23;;
4837;SDS011;2433;48.768;9.154;2024-03-22T06:22:14;5.70;;;4.80;;
4837;SDS011;2433;48.768;9.154;2024-03-22T06:24:39;9.47;;;5.63;;
4837;SDS011;2433;48.768;9.154;2024-03-22T06:27:05;6.80;;;4.80;;
4837;SDS011;2433;48.768;9.154;2024-03-22T06:29:30;6.73;;;5.90;;
4837;SDS011;2433;48.768;9.154;2024-03-22T06:31:56;7.87;;;5.47;;
4837;SDS011;2433;48.768;9.154;2024-03-22T06:34:21;9.83;;;5.80;;
4837;SDS011;2433;48.768;9.154;2024-03-22T06:36:47;7.53;;;5.40;;
4837;SDS011;2433;48.768;9.154;2024-03-22T06:39:13;8.17;;;6.13;;
4837;SDS011;2433;48.768;9.154;2024-03-22T06:41:39;7.77;;;5.37;;
4837;SDS011;2433;48.768;9.154;2024-03-22T06:44:05;10.33;;;5.97;;
4837;SDS011;2433;48.768;9.154;2024-03-22T06:46:31;14.83;;;6.50;;
4837;SDS011;2433;48.768;9.154;2024-03-22T06:48:57;9.00;;;5.73;;
4837;SDS011;2433;48.768;9.154;2024-03-22T06:51:23;8.70;;;6.03;;
4837;SDS011;2433;48.768;9.154;2024-03-22T06:53:48;15.80;;;8.33;;
4837;SDS011;2433;48.768;9.154;2024-03-22T06:56:14;10.77;;;6.70;;
4837;SDS011;2433;48.768;9.154;2024-03-22T06:58:40;10.93;;;7.07;;
4837;SDS011;2433;48.768;9.154;2024-03-22T07:01:05;11.13;;;5.77;;
4837;SDS011;2433;48.768;9.154;2024-03-22T07:03:34;8.50;;;5.70;;
4837;SDS011;2433;48.768;9.154;2024-03-22T07:06:00;7.40;;;5.60;;
4837;SDS011;2433;48.768;9.154;2024-03-22T07:08:26;10.83;;;6.60;;
4837;SDS011;2433;48.768;9.154;2024-03-22T07:10:53;13.30;;;7.50;;
4837;SDS011;2433;48.768;9.154;2024-03-22T07:13:19;10.53;;;6.13;;
4837;SDS011;2433;48.768;9.154;2024-03-22T07:15:46;10.03;;;6.47;;
4837;SDS011;2433;48.768;9.154;2024-03-22T07:18:13;7.40;;;6.63;;
4837;SDS011;2433;48.768;9.154;2024-03-22T07:20:39;12.90;;;7.03;;
4837;SDS011;2433;48.768;9.154;2024-03-22T07:23:05;7.07;;;5.77;;
4837;SDS011;2433;48.768;9.154;2024-03-22T07:25:31;8.60;;;6.47;;
4837;SDS011;2433;48.768;9.154;2024-03-22T07:27:57;14.13;;;6.40;;
4837;SDS011;2433;48.768;9.154;2024-03-22T07:30:22;9.50;;;6.83;;
4837;SDS011;2433;48.768;9.154;2024-03-22T07:32:48;10.60;;;5.63;;
4837;SDS011;2433;48.768;9.154;2024-03-22T07:35:13;9.30;;;6.00;;
4837;SDS011;2433;48.768;9.154;2024-03-22T07:37:39;6.50;;;5.37;;
4837;SDS011;2433;48.768;9.154;2024-03-22T07:40:05;7.70;;;5.93;;
4837;SDS011;2433;48.768;9.154;2024-03-22T07:42:31;8.50;;;6.30;;
4837;SDS011;2433;48.768;9.154;2024-03-22T07:44:57;5.73;;;4.83;;
4837;SDS011;2433;48.768;9.154;2024-03-22T07:47:22;7.57;;;5.23;;
4837;SDS011;2433;48.768;9.154;2024-03-22T07:49:48;5.33;;;4.23;;
4837;SDS011;2433;48.768;9.154;2024-03-22T07:52:14;6.37;;;4.40;;
4837;SDS011;2433;48.768;9.154;2024-03-22T07:54:39;5.03;;;3.67;;
4837;SDS011;2433;48.768;9.154;2024-03-22T07:57:05;5.80;;;4.43;;
4837;SDS011;2433;48.768;9.154;2024-03-22T07:59:31;6.13;;;5.53;;
4837;SDS011;2433;48.768;9.154;2024-03-22T08:01:57;5.50;;;4.93;;
4837;SDS011;2433;48.768;9.154;2024-03-22T08:04:23;9.23;;;4.17;;
4837;SDS011;2433;48.768;9.154;2024-03-22T08:06:50;6.27;;;4.33;;
4837;SDS011;2433;48.768;9.154;2024-03-22T08:09:16;8.40;;;4.80;;
4837;SDS011;2433;48.768;9.154;2024-03-22T08:11:43;7.50;;;5.93;;
4837;SDS011;2433;48.768;9.154;2024-03-22T08:14:08;7.87;;;5.07;;
4837;SDS011;2433;48.768;9.154;2024-03-22T08:16:34;8.47;;;5.00;;
4837;SDS011;2433;48.768;9.154;2024-03-22T08:18:59;5.40;;;3.90;;
4837;SDS011;2433;48.768;9.154;2024-03-22T08:21:25;7.30;;;4.37;;
4837;SDS011;2433;48.768;9.154;2024-03-22T08:23:51;6.30;;;3.70;;
4837;SDS011;2433;48.768;9.154;2024-03-22T08:26:17;6.03;;;3.63;;
4837;SDS011;2433;48.768;9.154;2024-03-22T08:28:43;4.07;;;3.23;;
4837;SDS011;2433;48.768;9.154;2024-03-22T08:31:09;4.80;;;3.80;;
4837;SDS011;2433;48.768;9.154;2024-03-22T08:33:35;5.20;;;3.27;;
4837;SDS011;2433;48.768;9.154;2024-03-22T08:36:00;9.20;;;4.17;;
4837;SDS011;2433;48.768;9.154;2024-03-22T08:38:26;6.73;;;3.77;;
4837;SDS011;2433;48.768;9.154;2024-03-22T08:40:52;6.10;;;4.23;;
4837;SDS011;2433;48.768;9.154;2024-03-22T08:43:18;5.57;;;3.23;;
4837;SDS011;2433;48.768;9.154;2024-03-22T08:45:43;4.00;;;3.27;;
4837;SDS011;2433;48.768;9.154;2024-03-22T08:48:09;5.10;;;3.57;;
4837;SDS011;2433;48.768;9.154;2024-03-22T08:50:35;5.70;;;3.00;;
4837;SDS011;2433;48.768;9.154;2024-03-22T08:53:00;4.80;;;3.90;;
4837;SDS011;2433;48.768;9.154;2024-03-22T08:55:29;5.17;;;3.40;;
4837;SDS011;2433;48.768;9.154;2024-03-22T08:57:55;5.33;;;4.07;;
4837;SDS011;2433;48.768;9.154;2024-03-22T09:00:21;6.20;;;3.40;;
4837;SDS011;2433;48.768;9.154;2024-03-22T09:02:46;4.90;;;3.27;;
4837;SDS011;2433;48.768;9.154;2024-03-22T09:05:12;4.00;;;3.20;;
4837;SDS011;2433;48.768;9.154;2024-03-22T09:07:38;4.63;;;3.00;;
4837;SDS011;2433;48.768;9.154;2024-03-22T09:10:04;3.60;;;2.93;;
4837;SDS011;2433;48.768;9.154;2024-03-22T09:12:30;4.53;;;3.53;;
4837;SDS011;2433;48.768;9.154;2024-03-22T09:14:56;5.53;;;3.33;;
4837;SDS011;2433;48.768;9.154;2024-03-22T09:17:21;5.77;;;3.37;;
4837;SDS011;2433;48.768;9.154;2024-03-22T09:19:47;3.90;;;2.60;;
4837;SDS011;2433;48.768;9.154;2024-03-22T09:22:13;5.47;;;3.33;;
4837;SDS011;2433;48.768;9.154;2024-03-22T09:24:40;5.70;;;3.30;;
4837;SDS011;2433;48.768;9.154;2024-03-22T09:27:06;4.47;;;2.80;;
4837;SDS011;2433;48.768;9.154;2024-03-22T09:29:34;3.53;;;3.13;;
4837;SDS011;2433;48.768;9.154;2024-03-22T09:32:01;6.70;;;2.50;;
4837;SDS011;2433;48.768;9.154;2024-03-22T09:34:27;3.73;;;2.77;;
4837;SDS011;2433;48.768;9.154;2024-03-22T09:36:53;4.10;;;2.93;;
4837;SDS011;2433;48.768;9.154;2024-03-22T09:39:19;5.47;;;2.47;;
4837;SDS011;2433;48.768;9.154;2024-03-22T09:41:44;4.27;;;2.47;;
4837;SDS011;2433;48.768;9.154;2024-03-22T09:44:13;3.30;;;2.53;;
4837;SDS011;2433;48.768;9.154;2024-03-22T09:46:43;4.20;;;2.60;;
4837;SDS011;2433;48.768;9.154;2024-03-22T09:49:10;3.97;;;2.97;;
4837;SDS011;2433;48.768;9.154;2024-03-22T09:51:36;4.00;;;1.90;;
4837;SDS011;2433;48.768;9.154;2024-03-22T09:54:02;5.37;;;3.23;;
4837;SDS011;2433;48.768;9.154;2024-03-22T09:56:28;4.70;;;3.33;;
4837;SDS011;2433;48.768;9.154;2024-03-22T09:58:56;3.83;;;2.90;;
4837;SDS011;2433;48.768;9.154;2024-03-22T10:01:22;3.50;;;2.20;;
4837;SDS011;2433;48.768;9.154;2024-03-22T10:03:49;2.67;;;2.40;;
4837;SDS011;2433;48.768;9.154;2024-03-22T10:06:16;4.10;;;2.77;;
4837;SDS011;2433;48.768;9.154;2024-03-22T10:08:42;2.43;;;2.23;;
4837;SDS011;2433;48.768;9.154;2024-03-22T10:11:08;3.10;;;2.60;;
4837;SDS011;2433;48.768;9.154;2024-03-22T10:13:34;3.50;;;2.50;;
4837;SDS011;2433;48.768;9.154;2024-03-22T10:15:59;3.30;;;2.23;;
4837;SDS011;2433;48.768;9.154;2024-03-22T10:18:26;4.30;;;2.80;;
4837;SDS011;2433;48.768;9.154;2024-03-22T10:21:04;5.00;;;2.43;;
4837;SDS011;2433;48.768;9.154;2024-03-22T10:23:30;3.37;;;2.37;;
4837;SDS011;2433;48.768;9.154;2024-03-22T10:25:57;2.70;;;2.40;;
4837;SDS011;2433;48.768;9.154;2024-03-22T10:28:26;2.27;;;1.93;;
4837;SDS011;2433;48.768;9.154;2024-03-22T10:30:53;4.17;;;2.23;;
4837;SDS011;2433;48.768;9.154;2024-03-22T10:33:19;4.17;;;2.70;;
4837;SDS011;2433;48.768;9.154;2024-03-22T10:35:46;2.40;;;2.03;;
4837;SDS011;2433;48.768;9.154;2024-03-22T10:38:12;4.67;;;3.60;;
4837;SDS011;2433;48.768;9.154;2024-03-22T10:40:43;3.20;;;2.43;;
4837;SDS011;2433;48.768;9.154;2024-03-22T10:43:10;2.80;;;2.07;;
4837;SDS011;2433;48.768;9.154;2024-03-22T10:45:36;4.30;;;2.60;;
4837;SDS011;2433;48.768;9.154;2024-03-22T10:48:02;3.57;;;2.27;;
4837;SDS011;2433;48.768;9.154;2024-03-22T10:50:31;4.53;;;2.47;;
4837;SDS011;2433;48.768;9.154;2024-03-22T10:53:01;3.73;;;2.17;;
4837;SDS011;2433;48.768;9.154;2024-03-22T10:55:32;2.90;;;2.53;;
4837;SDS011;2433;48.768;9.154;2024-03-22T10:57:58;2.30;;;1.80;;
4837;SDS011;2433;48.768;9.154;2024-03-22T11:00:31;4.83;;;3.70;;
4837;SDS011;2433;48.768;9.154;2024-03-22T11:02:58;4.47;;;2.43;;
4837;SDS011;2433;48.768;9.154;2024-03-22T11:05:25;3.47;;;3.17;;
4837;SDS011;2433;48.768;9.154;2024-03-22T11:08:01;4.03;;;3.53;;
4837;SDS011;2433;48.768;9.154;2024-03-22T11:10:30;4.63;;;2.70;;
4837;SDS011;2433;48.768;9.154;2024-03-22T11:13:02;2.80;;;2.30;;
4837;SDS011;2433;48.768;9.154;2024-03-22T11:15:32;3.37;;;2.63;;
4837;SDS011;2433;48.768;9.154;2024-03-22T11:17:59;2.63;;;2.40;;
4837;SDS011;2433;48.768;9.154;2024-03-22T11:20:25;4.13;;;2.90;;
4837;SDS011;2433;48.768;9.154;2024-03-22T11:22:52;3.63;;;2.33;;
4837;SDS011;2433;48.768;9.154;2024-03-22T11:25:18;2.57;;;1.70;;
4837;SDS011;2433;48.768;9.154;2024-03-22T11:27:45;3.53;;;3.03;;
4837;SDS011;2433;48.768;9.154;2024-03-22T11:30:11;1.87;;;1.50;;
4837;SDS011;2433;48.768;9.154;2024-03-22T11:32:36;2.63;;;2.40;;
4837;SDS011;2433;48.768;9.154;2024-03-22T11:35:10;6.70;;;2.47;;
4837;SDS011;2433;48.768;9.154;2024-03-22T11:37:38;4.07;;;2.57;;
4837;SDS011;2433;48.768;9.154;2024-03-22T11:40:04;5.60;;;2.50;;
4837;SDS011;2433;48.768;9.154;2024-03-22T11:42:32;2.30;;;1.83;;
4837;SDS011;2433;48.768;9.154;2024-03-22T11:44:58;4.30;;;3.00;;
4837;SDS011;2433;48.768;9.154;2024-03-22T11:47:24;3.07;;;2.20;;
4837;SDS011;2433;48.768;9.154;2024-03-22T11:49:50;5.23;;;2.87;;
4837;SDS011;2433;48.768;9.154;2024-03-22T11:52:15;3.37;;;2.23;;
4837;SDS011;2433;48.768;9.154;2024-03-22T11:54:41;2.30;;;2.00;;
4837;SDS011;2433;48.768;9.154;2024-03-22T11:57:08;2.60;;;1.87;;
4837;SDS011;2433;48.768;9.154;2024-03-22T11:59:34;2.37;;;1.90;;
4837;SDS011;2433;48.768;9.154;2024-03-22T12:01:59;2.23;;;1.80;;
4837;SDS011;2433;48.768;9.154;2024-03-22T12:04:25;2.93;;;1.93;;
4837;SDS011;2433;48.768;9.154;2024-03-22T12:06:51;3.47;;;2.20;;
4837;SDS011;2433;48.768;9.154;2024-03-22T12:09:18;2.10;;;1.80;;
4837;SDS011;2433;48.768;9.154;2024-03-22T12:11:43;2.10;;;1.80;;
4837;SDS011;2433;48.768;9.154;2024-03-22T12:14:09;4.00;;;1.67;;
4837;SDS011;2433;48.768;9.154;2024-03-22T12:16:35;3.13;;;1.47;;
4837;SDS011;2433;48.768;9.154;2024-03-22T12:19:01;2.90;;;1.43;;
4837;SDS011;2433;48.768;9.154;2024-03-22T12:21:28;3.20;;;1.60;;
4837;SDS011;2433;48.768;9.154;2024-03-22T12:23:54;2.47;;;1.30;;
4837;SDS011;2433;48.768;9.154;2024-03-22T12:26:20;2.03;;;1.50;;
4837;SDS011;2433;48.768;9.154;2024-03-22T12:28:45;1.67;;;1.40;;
4837;SDS011;2433;48.768;9.154;2024-03-22T12:31:11;2.30;;;1.50;;
4837;SDS011;2433;48.768;9.154;2024-03-22T12:33:37;2.77;;;1.50;;
4837;SDS011;2433;48.768;9.154;2024-03-22T12:36:03;2.60;;;1.70;;
4837;SDS011;2433;48.768;9.154;2024-03-22T12:38:29;2.00;;;1.60;;
4837;SDS011;2433;48.768;9.154;2024-03-22T12:40:55;2.00;;;1.57;;
4837;SDS011;2433;48.768;9.154;2024-03-22T12:43:22;2.43;;;1.40;;
4837;SDS011;2433;48.768;9.154;2024-03-22T12:45:47;2.23;;;1.43;;
4837;SDS011;2433;48.768;9.154;2024-03-22T12:48:13;3.20;;;1.87;;
4837;SDS011;2433;48.768;9.154;2024-03-22T12:50:38;3.77;;;1.50;;
4837;SDS011;2433;48.768;9.154;2024-03-22T12:53:04;2.17;;;1.40;;
4837;SDS011;2433;48.768;9.154;2024-03-22T12:55:30;2.60;;;1.53;;
4837;SDS011;2433;48.768;9.154;2024-03-22T12:57:57;1.80;;;1.20;;
4837;SDS011;2433;48.768;9.154;2024-03-22T13:00:23;1.30;;;1.13;;
4837;SDS011;2433;48.768;9.154;2024-03-22T13:02:48;2.93;;;1.30;;
4837;SDS011;2433;48.768;9.154;2024-03-22T13:05:14;1.43;;;1.33;;
4837;SDS011;2433;48.768;9.154;2024-03-22T13:07:40;2.30;;;1.40;;
4837;SDS011;2433;48.768;9.154;2024-03-22T13:10:07;1.63;;;1.43;;
4837;SDS011;2433;48.768;9.154;2024-03-22T13:12:33;3.33;;;1.43;;
4837;SDS011;2433;48.768;9.154;2024-03-22T13:15:02;2.10;;;1.87;;
4837;SDS011;2433;48.768;9.154;2024-03-22T13:17:29;1.87;;;1.40;;
4837;SDS011;2433;48.768;9.154;2024-03-22T13:19:55;2.07;;;1.40;;
4837;SDS011;2433;48.768;9.154;2024-03-22T13:22:20;1.50;;;1.37;;
4837;SDS011;2433;48.768;9.154;2024-03-22T13:24:46;2.43;;;2.23;;
4837;SDS011;2433;48.768;9.154;2024-03-22T13:27:13;2.00;;;1.70;;
4837;SDS011;2433;48.768;9.154;2024-03-22T13:29:42;2.90;;;1.77;;
4837;SDS011;2433;48.768;9.154;2024-03-22T13:32:07;2.53;;;2.30;;
4837;SDS011;2433;48.768;9.154;2024-03-22T13:34:34;4.03;;;2.33;;
4837;SDS011;2433;48.768;9.154;2024-03-22T13:37:00;2.30;;;2.10;;
4837;SDS011;2433;48.768;9.154;2024-03-22T13:39:26;2.53;;;2.30;;
4837;SDS011;2433;48.768;9.154;2024-03-22T13:41:52;3.83;;;2.30;;
4837;SDS011;2433;48.768;9.154;2024-03-22T13:44:19;2.17;;;1.77;;
4837;SDS011;2433;48.768;9.154;2024-03-22T13:46:51;2.70;;;2.40;;
4837;SDS011;2433;48.768;9.154;2024-03-22T13:49:17;1.83;;;1.73;;
4837;SDS011;2433;48.768;9.154;2024-03-22T13:51:46;3.53;;;2.07;;
4837;SDS011;2433;48.768;9.154;2024-03-22T13:54:12;2.33;;;2.13;;
4837;SDS011;2433;48.768;9.154;2024-03-22T13:56:38;2.57;;;1.80;;
4837;SDS011;2433;48.768;9.154;2024-03-22T13:59:04;3.10;;;2.03;;
4837;SDS011;2433;48.768;9.154;2024-03-22T14:01:37;1.70;;;1.17;;
4837;SDS011;2433;48.768;9.154;2024-03-22T14:04:04;1.33;;;0.63;;
4837;SDS011;2433;48.768;9.154;2024-03-22T14:06:30;1.77;;;1.60;;
4837;SDS011;2433;48.768;9.154;2024-03-22T14:08:56;1.50;;;1.23;;
4837;SDS011;2433;48.768;9.154;2024-03-22T14:11:26;2.30;;;1.97;;
4837;SDS011;2433;48.768;9.154;2024-03-22T14:13:52;2.80;;;1.70;;
4837;SDS011;2433;48.768;9.154;2024-03-22T14:16:18;1.90;;;1.67;;
4837;SDS011;2433;48.768;9.154;2024-03-22T14:18:44;2.00;;;1.80;;
4837;SDS011;2433;48.768;9.154;2024-03-22T14:21:09;2.00;;;1.80;;
4837;SDS011;2433;48.768;9.154;2024-03-22T14:23:36;6.23;;;2.90;;
4837;SDS011;2433;48.768;9.154;2024-03-22T14:26:02;4.20;;;2.97;;
4837;SDS011;2433;48.768;9.154;2024-03-22T14:28:28;4.07;;;2.37;;
4837;SDS011;2433;48.768;9.154;2024-03-22T14:30:54;4.50;;;2.60;;
4837;SDS011;2433;48.768;9.154;2024-03-22T14:33:19;2.30;;;1.20;;
4837;SDS011;2433;48.768;9.154;2024-03-22T14:35:45;1.70;;;1.60;;
4837;SDS011;2433;48.768;9.154;2024-03-22T14:38:11;2.93;;;1.80;;
4837;SDS011;2433;48.768;9.154;2024-03-22T14:40:36;3.80;;;1.80;;
4837;SDS011;2433;48.768;9.154;2024-03-22T14:43:03;1.60;;;1.23;;
4837;SDS011;2433;48.768;9.154;2024-03-22T14:45:30;1.07;;;0.97;;
4837;SDS011;2433;48.768;9.154;2024-03-22T14:47:55;2.83;;;1.30;;
4837;SDS011;2433;48.768;9.154;2024-03-22T14:50:21;2.10;;;0.90;;
4837;SDS011;2433;48.768;9.154;2024-03-22T14:52:48;2.00;;;1.30;;
4837;SDS011;2433;48.768;9.154;2024-03-22T14:55:14;1.60;;;1.50;;
4837;SDS011;2433;48.768;9.154;2024-03-22T14:57:40;1.80;;;0.97;;
4837;SDS011;2433;48.768;9.154;2024-03-22T15:00:05;3.13;;;0.97;;
4837;SDS011;2433;48.768;9.154;2024-03-22T15:02:35;1.40;;;0.93;;
4837;SDS011;2433;48.768;9.154;2024-03-22T15:05:01;2.10;;;1.43;;
4837;SDS011;2433;48.768;9.154;2024-03-22T15:07:26;1.80;;;1.33;;